createdAt,value
2022-08-12T00:00:36.532Z,11.60
2022-08-12T00:03:24.568Z,11.25
2022-08-12T00:06:11.488Z,11.43
2022-08-12T00:08:58.268Z,11.52
2022-08-12T00:11:45.612Z,11.48
2022-08-12T00:14:32.275Z,11.02
2022-08-12T00:17:19.665Z,11.93
2022-08-12T00:20:07.509Z,10.93
2022-08-12T00:22:59.890Z,11.10
2022-08-12T00:26:21.496Z,11.20
2022-08-12T00:29:04.767Z,11.70
2022-08-12T00:31:51.527Z,11.63
2022-08-12T00:34:37.849Z,11.00
2022-08-12T00:37:26.019Z,10.88
2022-08-12T00:40:15.839Z,11.43
2022-08-12T00:42:46.209Z,10.65
2022-08-12T00:45:15.211Z,10.95
2022-08-12T00:47:44.671Z,11.70
2022-08-12T00:50:19.651Z,10.63
2022-08-12T00:52:52.116Z,11.50
2022-08-12T00:55:21.897Z,10.95
2022-08-12T00:57:52.180Z,11.15
2022-08-12T01:00:23.156Z,10.73
2022-08-12T01:02:55.708Z,10.75
2022-08-12T01:05:43.612Z,11.27
2022-08-12T01:08:46.090Z,11.13
2022-08-12T01:11:30.082Z,10.77
2022-08-12T01:14:00.680Z,10.48
2022-08-12T01:16:29.875Z,10.82
2022-08-12T01:18:59.884Z,10.25
2022-08-12T01:21:57.965Z,10.00
2022-08-12T01:24:52.478Z,9.73
2022-08-12T01:27:23.387Z,10.38
2022-08-12T01:29:54.898Z,10.15
2022-08-12T01:32:24.764Z,11.13
2022-08-12T01:34:59.351Z,10.45
2022-08-12T01:37:31.561Z,10.85
2022-08-12T01:40:35.056Z,10.60
2022-08-12T01:42:53.187Z,10.25
2022-08-12T01:45:25.034Z,10.10
2022-08-12T01:48:06.133Z,10.15
2022-08-12T01:50:43.138Z,10.45
2022-08-12T01:53:16.006Z,9.40
2022-08-12T01:55:48.194Z,10.13
2022-08-12T01:58:27.276Z,9.60
2022-08-12T02:01:01.407Z,9.70
2022-08-12T02:04:05.176Z,10.02
2022-08-12T02:06:57.853Z,9.35
2022-08-12T02:09:58.420Z,9.75
2022-08-12T02:12:43.751Z,9.68
2022-08-12T02:15:27.078Z,9.85
2022-08-12T02:18:09.894Z,11.00
2022-08-12T02:20:51.656Z,10.05
2022-08-12T02:23:27.239Z,10.18
2022-08-12T02:25:59.874Z,10.00
2022-08-12T02:28:31.944Z,9.32
2022-08-12T02:31:05.664Z,9.98
2022-08-12T02:33:35.324Z,9.88
2022-08-12T02:36:05.211Z,10.57
2022-08-12T02:38:34.451Z,9.93
2022-08-12T02:41:07.070Z,10.25
2022-08-12T02:43:41.509Z,10.50
2022-08-12T02:46:14.897Z,10.50
2022-08-12T02:48:51.191Z,9.82
2022-08-12T02:51:24.847Z,9.80
2022-08-12T02:54:04.640Z,10.70
2022-08-12T02:56:40.689Z,10.73
2022-08-12T02:59:16.903Z,9.60
2022-08-12T03:01:49.853Z,10.35
2022-08-12T03:04:27.730Z,10.45
2022-08-12T03:07:05.691Z,10.38
2022-08-12T03:09:49.912Z,10.52
2022-08-12T03:12:33.999Z,10.13
2022-08-12T03:15:10.021Z,10.23
2022-08-12T03:17:46.251Z,11.50
2022-08-12T03:20:41.000Z,9.68
2022-08-12T03:23:19.399Z,10.48
2022-08-12T03:26:01.991Z,10.30
2022-08-12T03:28:50.040Z,10.48
2022-08-12T03:31:22.336Z,11.45
2022-08-12T03:34:02.144Z,10.30
2022-08-12T03:36:35.387Z,11.00
2022-08-12T03:39:22.987Z,9.98
2022-08-12T03:42:22.508Z,10.23
2022-08-12T03:45:15.949Z,10.85
2022-08-12T03:48:18.576Z,10.52
2022-08-12T03:51:06.516Z,10.13
2022-08-12T03:53:53.458Z,10.27
2022-08-12T03:56:40.107Z,10.52
2022-08-12T03:59:26.939Z,10.63
2022-08-12T04:01:58.577Z,10.20
2022-08-12T04:04:34.112Z,10.20
2022-08-12T04:07:07.962Z,10.93
2022-08-12T04:09:39.187Z,11.45
2022-08-12T04:12:26.373Z,13.68
2022-08-12T04:14:57.100Z,11.20
2022-08-12T04:17:28.267Z,11.35
2022-08-12T04:20:00.132Z,10.80
2022-08-12T04:22:30.791Z,10.77
2022-08-12T04:25:02.088Z,21.50
2022-08-12T04:27:32.779Z,12.32
2022-08-12T04:30:21.000Z,11.05
2022-08-12T04:32:53.881Z,12.35
2022-08-12T04:35:24.191Z,22.35
2022-08-12T04:38:00.150Z,25.33
2022-08-12T04:40:31.513Z,11.13
2022-08-12T04:43:02.384Z,14.15
2022-08-12T04:45:34.941Z,11.15
2022-08-12T04:48:06.096Z,10.80
2022-08-12T04:50:37.334Z,10.40
2022-08-12T04:53:09.813Z,10.23
2022-08-12T04:55:39.521Z,10.50
2022-08-12T04:58:09.119Z,10.70
2022-08-12T05:00:39.008Z,10.40
2022-08-12T05:03:10.969Z,11.43
2022-08-12T05:05:43.990Z,13.05
2022-08-12T05:08:14.090Z,9.85
2022-08-12T05:10:44.784Z,10.45
2022-08-12T05:13:29.561Z,10.30
2022-08-12T05:16:04.408Z,11.60
2022-08-12T05:18:39.457Z,10.63
2022-08-12T05:21:10.838Z,11.10
2022-08-12T05:23:43.074Z,10.45
2022-08-12T05:26:12.179Z,10.03
2022-08-12T05:28:41.756Z,10.07
2022-08-12T05:31:11.323Z,10.30
2022-08-12T05:33:41.094Z,10.65
2022-08-12T05:36:14.131Z,10.43
2022-08-12T05:38:59.092Z,10.68
2022-08-12T05:41:29.956Z,10.65
2022-08-12T05:44:01.170Z,11.18
2022-08-12T05:46:34.184Z,10.98
2022-08-12T05:51:41.398Z,10.85
2022-08-12T05:54:11.613Z,10.55
2022-08-12T05:56:41.821Z,10.55
2022-08-12T05:59:12.411Z,10.13
2022-08-12T06:02:12.593Z,10.18
2022-08-12T06:04:33.369Z,10.68
2022-08-12T06:07:48.732Z,10.95
2022-08-12T06:09:57.874Z,10.85
2022-08-12T06:12:26.734Z,12.00
2022-08-12T06:14:55.830Z,10.65
2022-08-12T06:17:24.915Z,10.30
2022-08-12T06:20:27.071Z,11.25
2022-08-12T06:22:45.374Z,10.95
2022-08-12T06:25:22.157Z,10.40
2022-08-12T06:28:07.234Z,10.70
2022-08-12T06:30:39.385Z,11.23
2022-08-12T06:33:49.760Z,11.35
2022-08-12T06:35:58.916Z,11.75
2022-08-12T06:38:31.455Z,11.52
2022-08-12T06:41:19.841Z,10.60
2022-08-12T06:44:04.967Z,10.75
2022-08-12T06:46:38.967Z,11.30
2022-08-12T06:49:08.839Z,11.60
2022-08-12T06:51:37.723Z,10.85
2022-08-12T06:54:10.621Z,11.80
2022-08-12T06:57:03.188Z,11.02
2022-08-12T06:59:28.722Z,10.77
2022-08-12T07:01:57.667Z,12.00
2022-08-12T07:04:36.759Z,12.48
2022-08-12T07:07:07.417Z,11.65
2022-08-12T07:10:04.805Z,13.38
2022-08-12T07:12:32.485Z,11.43
2022-08-12T07:15:02.741Z,11.30
2022-08-12T07:17:38.011Z,10.93
2022-08-12T07:20:29.661Z,11.27
2022-08-12T07:23:01.751Z,12.75
2022-08-12T07:25:41.058Z,11.43
2022-08-12T07:28:16.628Z,11.93
2022-08-12T07:30:48.719Z,11.20
2022-08-12T07:33:19.391Z,11.70
2022-08-12T07:35:48.838Z,11.23
2022-08-12T07:38:29.875Z,11.82
2022-08-12T07:41:06.210Z,10.63
2022-08-12T07:43:38.951Z,11.75
2022-08-12T07:46:10.509Z,11.35
2022-08-12T07:48:42.219Z,11.48
2022-08-12T07:51:12.809Z,12.35
2022-08-12T07:54:00.828Z,11.50
2022-08-12T07:56:33.491Z,11.10
2022-08-12T07:59:03.207Z,11.32
2022-08-12T08:01:33.220Z,12.15
2022-08-12T08:04:24.044Z,11.90
2022-08-12T08:06:55.270Z,11.60
2022-08-12T08:09:25.004Z,11.18
2022-08-12T08:12:19.090Z,11.68
2022-08-12T08:14:49.749Z,11.82
2022-08-12T08:17:19.228Z,11.30
2022-08-12T08:20:03.529Z,11.10
2022-08-12T08:22:41.550Z,10.40
2022-08-12T08:25:35.096Z,11.60
2022-08-12T08:28:04.544Z,10.73
2022-08-12T08:30:34.426Z,10.38
2022-08-12T08:33:03.167Z,10.57
2022-08-12T08:35:49.317Z,10.63
2022-08-12T08:38:32.199Z,10.80
2022-08-12T08:42:16.164Z,11.18
2022-08-12T08:44:13.775Z,10.48
2022-08-12T08:46:43.851Z,10.13
2022-08-12T08:49:13.397Z,10.40
2022-08-12T08:51:42.721Z,10.50
2022-08-12T08:54:12.744Z,10.25
2022-08-12T08:56:46.504Z,10.80
2022-08-12T08:59:19.410Z,11.32
2022-08-12T09:01:49.506Z,10.75
2022-08-12T09:05:12.130Z,10.98
2022-08-12T09:07:17.837Z,11.13
2022-08-12T09:10:02.762Z,10.32
2022-08-12T09:15:42.418Z,11.85
2022-08-12T09:21:17.949Z,10.90
2022-08-12T09:24:00.492Z,10.95
2022-08-12T09:26:45.871Z,11.50
2022-08-12T09:29:16.065Z,10.73
2022-08-12T09:32:03.283Z,10.02
2022-08-12T09:34:43.174Z,10.75
2022-08-12T09:37:19.504Z,10.73
2022-08-12T09:40:05.802Z,10.32
2022-08-12T09:43:16.573Z,11.07
2022-08-12T09:46:06.455Z,10.40
2022-08-12T09:48:44.490Z,10.88
2022-08-12T09:51:17.211Z,11.10
2022-08-12T09:54:08.367Z,11.90
2022-08-12T09:57:03.181Z,10.25
2022-08-12T10:00:13.961Z,11.00
2022-08-12T10:02:44.707Z,10.77
2022-08-12T10:05:13.873Z,11.30
2022-08-12T10:07:46.897Z,11.13
2022-08-12T10:10:22.929Z,11.43
2022-08-12T10:13:34.392Z,10.73
2022-08-12T10:16:06.323Z,11.57
2022-08-12T10:18:51.753Z,11.75
2022-08-12T10:21:36.016Z,13.07
2022-08-12T10:24:08.456Z,12.93
2022-08-12T10:26:57.271Z,12.93
2022-08-12T10:30:03.067Z,12.23
2022-08-12T10:32:44.474Z,12.90
2022-08-12T10:35:17.154Z,11.80
2022-08-12T10:38:36.566Z,12.40
2022-08-12T10:40:58.777Z,11.52
2022-08-12T10:43:54.486Z,11.98
2022-08-12T10:46:31.025Z,11.38
2022-08-12T10:49:07.084Z,12.65
2022-08-12T10:52:33.434Z,12.63
2022-08-12T10:54:43.795Z,11.65
2022-08-12T10:58:12.974Z,12.25
2022-08-12T11:00:30.265Z,12.70
2022-08-12T11:04:31.295Z,18.67
2022-08-12T11:07:03.347Z,12.40
2022-08-12T11:08:42.763Z,11.40
2022-08-12T11:12:36.097Z,12.50
2022-08-12T11:14:49.670Z,11.10
2022-08-12T11:17:34.273Z,12.05
2022-08-12T11:19:48.817Z,11.85
2022-08-12T11:22:18.133Z,12.75
2022-08-12T11:24:55.561Z,11.57
2022-08-12T11:27:26.056Z,11.75
2022-08-12T11:30:01.978Z,11.45
2022-08-12T11:32:38.606Z,12.18
2022-08-12T11:35:11.505Z,12.40
2022-08-12T11:37:41.444Z,12.52
2022-08-12T11:40:28.439Z,13.10
2022-08-12T11:43:03.596Z,12.40
2022-08-12T11:45:52.947Z,12.02
2022-08-12T11:48:26.986Z,12.57
2022-08-12T11:50:56.981Z,15.50
2022-08-12T11:53:57.152Z,12.95
2022-08-12T11:56:15.050Z,12.20
2022-08-12T12:02:03.067Z,12.50
2022-08-12T12:04:28.918Z,12.68
2022-08-12T12:07:06.617Z,12.52
2022-08-12T12:09:53.104Z,17.23
2022-08-12T12:12:25.232Z,14.40
2022-08-12T12:14:55.692Z,13.85
2022-08-12T12:17:25.184Z,13.82
2022-08-12T12:19:55.160Z,12.88
2022-08-12T12:22:27.118Z,12.30
2022-08-12T12:25:13.329Z,12.27
2022-08-12T12:30:40.397Z,12.48
2022-08-12T12:33:23.971Z,13.45
2022-08-12T12:36:16.672Z,11.55
2022-08-12T12:38:42.064Z,12.77
2022-08-12T12:41:16.321Z,12.77
2022-08-12T12:43:56.516Z,12.38
2022-08-12T12:46:34.511Z,11.80
2022-08-12T12:49:11.032Z,12.05
2022-08-12T12:51:49.007Z,11.82
2022-08-12T12:54:29.262Z,12.25
2022-08-12T12:56:58.701Z,12.25
2022-08-12T12:59:55.543Z,11.85
2022-08-12T13:02:31.519Z,23.55
2022-08-12T13:05:00.801Z,14.93
2022-08-12T13:07:49.351Z,11.27
2022-08-12T13:10:23.906Z,11.32
2022-08-12T13:12:53.995Z,12.10
2022-08-12T13:15:45.024Z,11.15
2022-08-12T13:18:15.614Z,10.90
2022-08-12T13:20:49.468Z,11.73
2022-08-12T13:23:36.370Z,11.18
2022-08-12T13:26:14.531Z,10.45
2022-08-12T13:28:53.055Z,10.70
2022-08-12T13:31:27.275Z,10.60
2022-08-12T13:34:33.479Z,11.05
2022-08-12T13:36:47.450Z,11.27
2022-08-12T13:39:16.494Z,11.82
2022-08-12T13:41:45.507Z,11.32
2022-08-12T13:44:16.974Z,12.25
2022-08-12T13:46:58.528Z,12.25
2022-08-12T13:49:54.508Z,11.30
2022-08-12T13:52:20.488Z,11.27
2022-08-12T13:54:56.242Z,12.00
2022-08-12T13:57:26.741Z,11.73
2022-08-12T14:00:00.447Z,12.40
2022-08-12T14:02:29.770Z,12.40
2022-08-12T14:05:00.108Z,12.10
2022-08-12T14:07:48.782Z,11.40
2022-08-12T14:10:39.014Z,12.18
2022-08-12T14:14:04.207Z,11.95
2022-08-12T14:16:14.294Z,12.90
2022-08-12T14:18:49.148Z,12.30
2022-08-12T14:21:22.473Z,13.57
2022-08-12T14:24:05.798Z,12.68
2022-08-12T14:26:41.766Z,12.90
2022-08-12T14:29:11.914Z,12.80
2022-08-12T14:32:03.404Z,20.65
2022-08-12T14:34:33.817Z,15.15
2022-08-12T14:37:07.258Z,12.23
2022-08-12T14:39:47.026Z,12.23
2022-08-12T14:42:20.258Z,13.13
2022-08-12T14:44:59.016Z,12.73
2022-08-12T14:47:50.069Z,13.63
2022-08-12T14:50:41.014Z,12.48
2022-08-12T14:59:20.649Z,12.52
2022-08-12T15:01:54.520Z,13.55
2022-08-12T15:04:29.117Z,13.05
2022-08-12T15:07:00.446Z,13.18
2022-08-12T15:09:31.670Z,12.77
2022-08-12T15:12:03.807Z,14.43
2022-08-12T15:14:35.404Z,14.40
2022-08-12T15:17:08.518Z,14.10
2022-08-12T15:20:24.667Z,14.63
2022-08-12T15:22:38.296Z,15.55
2022-08-12T15:25:17.842Z,14.38
2022-08-12T15:28:03.876Z,14.63
2022-08-12T15:30:37.657Z,16.23
2022-08-12T15:33:12.947Z,14.52
2022-08-12T15:35:52.851Z,14.07
2022-08-12T15:38:28.316Z,14.75
2022-08-12T15:41:00.268Z,15.65
2022-08-12T15:43:51.691Z,16.20
2022-08-12T15:46:25.758Z,15.70
2022-08-12T15:48:55.783Z,15.00
2022-08-12T15:51:59.659Z,14.98
2022-08-12T15:54:34.089Z,15.35
2022-08-12T15:57:10.852Z,15.68
2022-08-12T16:00:00.046Z,14.93
2022-08-12T16:02:50.435Z,14.40
2022-08-12T16:06:19.506Z,14.45
2022-08-12T16:08:19.758Z,15.00
2022-08-12T16:10:54.118Z,14.45
2022-08-12T16:13:32.761Z,14.60
2022-08-12T16:16:22.450Z,14.40
2022-08-12T16:19:01.946Z,15.38
2022-08-12T16:21:50.461Z,16.98
2022-08-12T16:24:22.655Z,15.40
2022-08-12T16:26:55.450Z,15.02
2022-08-12T16:29:53.530Z,15.52
2022-08-12T16:32:31.514Z,15.32
2022-08-12T16:35:02.181Z,17.42
2022-08-12T16:38:24.240Z,17.70
2022-08-12T16:40:24.393Z,16.63
2022-08-12T16:43:02.128Z,16.10
2022-08-12T16:46:05.287Z,17.08
2022-08-12T16:48:34.814Z,16.63
2022-08-12T16:51:09.589Z,16.27
2022-08-12T16:53:44.096Z,16.67
2022-08-12T16:56:17.331Z,24.38
2022-08-12T16:58:48.315Z,17.60
2022-08-12T17:01:19.735Z,17.23
2022-08-12T17:04:04.779Z,19.70
2022-08-12T17:06:46.181Z,17.83
2022-08-12T17:09:19.013Z,17.52
2022-08-12T17:11:50.319Z,16.52
2022-08-12T17:14:24.865Z,17.15
2022-08-12T17:16:57.020Z,16.88
2022-08-12T17:20:30.447Z,16.98
2022-08-12T17:22:21.722Z,16.17
2022-08-12T17:24:55.438Z,17.00
2022-08-12T17:27:32.016Z,16.25
2022-08-12T17:30:08.749Z,16.73
2022-08-12T17:32:53.126Z,17.15
2022-08-12T17:35:36.547Z,16.30
2022-08-12T17:38:11.844Z,16.20
2022-08-12T17:40:44.359Z,16.80
2022-08-12T17:43:57.083Z,15.98
2022-08-12T17:46:12.771Z,16.80
2022-08-12T17:48:55.631Z,16.67
2022-08-12T17:51:31.473Z,16.30
2022-08-12T17:54:11.156Z,16.60
2022-08-12T17:56:52.879Z,16.88
2022-08-12T17:59:47.735Z,20.25
2022-08-12T18:02:25.512Z,17.50
2022-08-12T18:05:09.367Z,16.90
2022-08-12T18:07:44.236Z,16.63
2022-08-12T18:10:43.049Z,20.25
2022-08-12T18:13:14.200Z,18.30
2022-08-12T18:16:12.767Z,17.50
2022-08-12T18:18:45.764Z,17.70
2022-08-12T18:21:20.313Z,17.40
2022-08-12T18:23:53.987Z,18.38
2022-08-12T18:26:24.932Z,17.67
2022-08-12T18:28:56.913Z,21.45
2022-08-12T18:31:43.849Z,17.92
2022-08-12T18:34:18.565Z,17.25
2022-08-12T18:36:55.400Z,18.98
2022-08-12T18:39:28.393Z,17.98
2022-08-12T18:42:00.156Z,18.83
2022-08-12T18:44:59.942Z,17.92
2022-08-12T18:47:49.831Z,20.02
2022-08-12T18:50:24.775Z,18.60
2022-08-12T18:52:58.073Z,17.35
2022-08-12T18:55:37.433Z,17.90
2022-08-12T18:58:10.432Z,18.30
2022-08-12T19:00:45.306Z,17.45
2022-08-12T19:03:39.162Z,17.63
2022-08-12T19:06:15.789Z,17.02
2022-08-12T19:08:47.569Z,17.98
2022-08-12T19:11:37.952Z,17.35
2022-08-12T19:14:28.522Z,17.33
2022-08-12T19:17:01.521Z,17.95
2022-08-12T19:22:30.778Z,16.77
2022-08-12T19:26:00.920Z,16.80
2022-08-12T19:28:36.564Z,16.73
2022-08-12T19:31:56.252Z,17.00
2022-08-12T19:36:08.308Z,16.88
2022-08-12T19:38:03.499Z,17.77
2022-08-12T19:40:57.524Z,16.73
2022-08-12T19:44:00.272Z,16.80
2022-08-12T19:46:52.950Z,15.32
2022-08-12T19:49:53.403Z,16.65
2022-08-12T19:52:43.111Z,15.52
2022-08-12T19:55:38.757Z,14.88
2022-08-12T19:58:28.439Z,15.05
2022-08-12T20:01:17.402Z,15.10
2022-08-12T20:04:04.940Z,14.80
2022-08-12T20:06:53.485Z,15.55
2022-08-12T20:09:42.896Z,15.40
2022-08-12T20:12:34.695Z,14.40
2022-08-12T20:15:26.279Z,15.38
2022-08-12T20:18:44.115Z,15.48
2022-08-12T20:21:41.098Z,15.02
2022-08-12T20:24:32.298Z,15.73
2022-08-12T20:27:53.698Z,15.07
2022-08-12T20:30:52.889Z,15.73
2022-08-12T20:33:50.637Z,15.45
2022-08-12T20:36:47.685Z,16.05
2022-08-12T20:39:53.732Z,14.30
2022-08-12T20:42:46.476Z,17.73
2022-08-12T20:45:44.870Z,14.98
2022-08-12T20:48:41.244Z,14.07
2022-08-12T20:51:50.885Z,14.27
2022-08-12T20:54:40.575Z,14.95
2022-08-12T20:57:38.339Z,14.75
2022-08-12T21:00:41.054Z,14.43
2022-08-12T21:03:52.301Z,13.77
2022-08-12T21:07:08.443Z,15.73
2022-08-12T21:09:56.612Z,15.68
2022-08-12T21:12:44.008Z,14.57
2022-08-12T21:15:54.565Z,14.95
2022-08-12T21:18:52.776Z,14.70
2022-08-12T21:21:50.038Z,14.18
2022-08-12T21:24:38.438Z,13.93
2022-08-12T21:27:58.188Z,13.30
2022-08-12T21:30:55.049Z,13.57
2022-08-12T21:34:07.429Z,11.75
2022-08-12T21:36:56.957Z,10.57
2022-08-12T21:39:52.155Z,10.60
2022-08-12T21:42:40.433Z,10.23
2022-08-12T21:45:47.938Z,10.20
2022-08-12T21:48:42.409Z,9.35
2022-08-12T21:51:50.078Z,8.93
2022-08-12T21:54:42.958Z,8.98
2022-08-12T21:57:36.457Z,8.80
2022-08-12T22:00:40.275Z,8.70
2022-08-12T22:04:02.693Z,8.63
2022-08-12T22:06:54.629Z,8.65
2022-08-12T22:09:46.953Z,8.38
2022-08-12T22:12:46.183Z,8.63
2022-08-12T22:15:34.294Z,8.32
2022-08-12T22:18:23.871Z,9.40
2022-08-12T22:21:16.976Z,8.85
2022-08-12T22:24:09.812Z,9.15
2022-08-12T22:27:31.861Z,9.32
2022-08-12T22:30:37.985Z,9.10
2022-08-12T22:33:26.692Z,10.02
2022-08-12T22:36:20.304Z,9.63
2022-08-12T22:39:11.809Z,9.77
2022-08-12T22:45:26.126Z,9.40
2022-08-12T22:48:21.889Z,8.93
2022-08-12T22:51:20.296Z,9.05
2022-08-12T22:54:07.833Z,8.85
2022-08-12T22:57:20.647Z,9.07
2022-08-12T23:00:27.299Z,9.02
2022-08-12T23:03:47.850Z,8.95
2022-08-12T23:06:25.528Z,9.93
2022-08-12T23:09:16.112Z,9.50
2022-08-12T23:12:08.158Z,9.65
2022-08-12T23:15:11.069Z,9.95
2022-08-12T23:17:58.884Z,9.52
2022-08-12T23:20:46.490Z,9.48
2022-08-12T23:23:57.675Z,9.35
2022-08-12T23:27:04.184Z,9.20
2022-08-12T23:29:59.357Z,9.35
2022-08-12T23:33:13.143Z,8.85
2022-08-12T23:36:03.399Z,9.85
2022-08-12T23:38:58.541Z,9.05
2022-08-12T23:41:56.319Z,8.65
2022-08-12T23:45:03.623Z,8.98
2022-08-12T23:48:08.481Z,10.27
2022-08-12T23:51:22.666Z,10.00
2022-08-12T23:54:17.917Z,10.27
2022-08-12T23:57:21.089Z,9.82
